Map

Track Data

SID SEASON NUMBER BASIN SUBBASIN NAME ISO_TIME NATURE LAT LON WMO_WIND WMO_PRES WMO_AGENCY TRACK_TYPE DIST2LAND LANDFALL IFLAG USA_AGENCY USA_ATCF_ID USA_LAT USA_LON USA_RECORD USA_STATUS USA_WIND USA_PRES USA_SSHS USA_R34_NE USA_R34_SE USA_R34_SW USA_R34_NW USA_R50_NE USA_R50_SE USA_R50_SW USA_R50_NW USA_R64_NE USA_R64_SE USA_R64_SW USA_R64_NW USA_POCI USA_ROCI USA_RMW USA_EYE TOKYO_LAT TOKYO_LON TOKYO_GRADE TOKYO_WIND TOKYO_PRES TOKYO_R50_DIR TOKYO_R50_LONG TOKYO_R50_SHORT TOKYO_R30_DIR TOKYO_R30_LONG TOKYO_R30_SHORT TOKYO_LAND CMA_LAT CMA_LON CMA_CAT CMA_WIND CMA_PRES HKO_LAT HKO_LON HKO_CAT HKO_WIND HKO_PRES NEWDELHI_LAT NEWDELHI_LON NEWDELHI_GRADE NEWDELHI_WIND NEWDELHI_PRES NEWDELHI_CI NEWDELHI_DP NEWDELHI_POCI REUNION_LAT REUNION_LON REUNION_TYPE REUNION_WIND REUNION_PRES REUNION_TNUM REUNION_CI REUNION_RMW REUNION_R34_NE REUNION_R34_SE REUNION_R34_SW REUNION_R34_NW REUNION_R50_NE REUNION_R50_SE REUNION_R50_SW REUNION_R50_NW REUNION_R64_NE REUNION_R64_SE REUNION_R64_SW REUNION_R64_NW BOM_LAT BOM_LON BOM_TYPE BOM_WIND BOM_PRES BOM_TNUM BOM_CI BOM_RMW BOM_R34_NE BOM_R34_SE BOM_R34_SW BOM_R34_NW BOM_R50_NE BOM_R50_SE BOM_R50_SW BOM_R50_NW BOM_R64_NE BOM_R64_SE BOM_R64_SW BOM_R64_NW BOM_ROCI BOM_POCI BOM_EYE BOM_POS_METHOD BOM_PRES_METHOD NADI_LAT NADI_LON NADI_CAT NADI_WIND NADI_PRES WELLINGTON_LAT WELLINGTON_LON WELLINGTON_WIND WELLINGTON_PRES DS824_LAT DS824_LON DS824_STAGE DS824_WIND DS824_PRES TD9636_LAT TD9636_LON TD9636_STAGE TD9636_WIND TD9636_PRES TD9635_LAT TD9635_LON TD9635_WIND TD9635_PRES TD9635_ROCI NEUMANN_LAT NEUMANN_LON NEUMANN_CLASS NEUMANN_WIND NEUMANN_PRES MLC_LAT MLC_LON MLC_CLASS MLC_WIND MLC_PRES USA_GUST BOM_GUST BOM_GUST_PER REUNION_GUST REUNION_GUST_PER USA_SEAHGT USA_SEARAD_NE USA_SEARAD_SE USA_SEARAD_SW USA_SEARAD_NW STORM_SPEED STORM_DIR
1965262N15084 1965 97 NI BB NOT_NAMED 1965-09-18 18:00:00 TS 14.8000 84.4000 main 301 294 O________O____ jtwc_io IO081965 14.8000 84.4000 -1 14.8000 84.4000 TC 2 11
1965262N15084 1965 97 NI BB NOT_NAMED 1965-09-18 21:00:00 TS 14.8950 84.4250 main 294 279 P________P____ IO081965 14.8950 84.4250 -1 14.8950 84.4250 TC 2 333
1965262N15084 1965 97 NI BB NOT_NAMED 1965-09-19 00:00:00 TS 15.0000 84.3000 main 279 239 O________O____ jtwc_io IO081965 15.0000 84.3000 -1 15.0000 84.3000 TC 25 5 295
1965262N15084 1965 97 NI BB NOT_NAMED 1965-09-19 03:00:00 TS 15.1243 83.9109 main 239 180 P________PO___ IO081965 15.1273 83.9123 -1 15.1273 83.9123 TC 25 15.1000 83.9000 1 10 287
1965262N15084 1965 97 NI BB NOT_NAMED 1965-09-19 06:00:00 TS 15.3102 83.2704 main 180 119 O________OP___ jtwc_io IO081965 15.3000 83.3000 -1 15.3000 83.3000 TC 25 15.3510 83.1518 1 15 288
1965262N15084 1965 97 NI BB NOT_NAMED 1965-09-19 09:00:00 TS 15.5615 82.4763 main 109 56 P________PP___ IO081965 15.5506 82.4929 -1 15.5506 82.4929 TC 25 15.5904 82.4320 1 16 288
1965262N15084 1965 97 NI BB NOT_NAMED 1965-09-19 12:00:00 TS 15.8032 81.7237 main 55 0 O________OP___ jtwc_io IO081965 15.8000 81.7000 -1 15.8000 81.7000 TC 25 15.8096 81.7711 1 13 289
1965262N15084 1965 97 NI BB NOT_NAMED 1965-09-19 15:00:00 TS 15.9764 81.1881 main 0 0 P________PO___ IO081965 15.9646 81.1822 -1 15.9646 81.1822 TC 25 16.0000 81.2000 1 10 289
1965262N15084 1965 97 NI BB NOT_NAMED 1965-09-19 18:00:00 TS 16.1189 80.7794 main 0 0 O________OP___ jtwc_io IO081965 16.1000 80.8000 -1 16.1000 80.8000 TC 25 16.1566 80.7381 1 8 291
1965262N15084 1965 97 NI BB NOT_NAMED 1965-09-19 21:00:00 TS 16.2669 80.4147 main 0 0 P________PP___ IO081965 16.2573 80.4424 -1 16.2573 80.4424 TC 25 16.2860 80.3592 1 7 293
1965262N15084 1965 97 NI BB NOT_NAMED 1965-09-20 00:00:00 TS 16.3992 80.0752 main 0 0 O________OP___ jtwc_io IO081965 16.4000 80.1000 -1 16.4000 80.1000 TC 25 16.3975 80.0257 1 7 289
1965262N15084 1965 97 NI BB NOT_NAMED 1965-09-20 03:00:00 TS 16.5050 79.7000 main 0 0 P________PO___ IO081965 16.5075 79.6999 -1 16.5075 79.6999 TC 25 16.5000 79.7000 1 8 285
1965262N15084 1965 97 NI BB NOT_NAMED 1965-09-20 06:00:00 TS 16.5998 79.2786 main 0 0 O________OP___ jtwc_io IO081965 16.6000 79.3000 -1 16.6000 79.3000 TC 25 16.5995 79.2358 1 8 284
1965262N15084 1965 97 NI BB NOT_NAMED 1965-09-20 09:00:00 TS 16.6977 78.8801 main 0 0 P________PP___ IO081965 16.7000 78.9275 -1 16.7000 78.9275 TC 25 16.6931 78.7853 1 7 286
1965262N15084 1965 97 NI BB NOT_NAMED 1965-09-20 12:00:00 TS 16.7967 78.5391 main 0 0 O________OP___ jtwc_io IO081965 16.8000 78.6000 -1 16.8000 78.6000 TC 25 16.7900 78.4172 1 6 288
1965262N15084 1965 97 NI BB NOT_NAMED 1965-09-20 15:00:00 TS 16.8950 78.2401 main 0 0 P________PO___ IO081965 16.8925 78.2601 -1 16.8925 78.2601 TC 25 16.9000 78.2000 1 4 299
1965262N15084 1965 97 NI BB NOT_NAMED 1965-09-20 18:00:00 TS 17.0064 78.1402 main 0 0 O________OP___ jtwc_io IO081965 17.0000 78.1000 -1 17.0000 78.1000 TC 25 17.0191 78.2206 1 3 18
1965262N15084 1965 97 NI BB NOT_NAMED 1965-09-20 21:00:00 TS 17.1417 78.3190 main 0 0 P________PP___ IO081965 17.1351 78.2824 -1 17.1351 78.2824 TC 25 17.1549 78.3921 1 5 57
1965262N15084 1965 97 NI BB NOT_NAMED 1965-09-21 00:00:00 TS 17.3044 78.6142 main 0 0 O________OP___ jtwc_io IO081965 17.3000 78.6000 -1 17.3000 78.6000 TC 25 17.3132 78.6426 1 6 55
1965262N15084 1965 97 NI BB NOT_NAMED 1965-09-21 03:00:00 TS 17.4900 78.8434 main 0 0 P________PO___ IO081965 17.4850 78.8150 -1 17.4850 78.8150 TC 25 17.5000 78.9000 1 6 44
1965262N15084 1965 97 NI BB NOT_NAMED 1965-09-21 06:00:00 TS 17.7070 79.0137 main 0 0 O________OP___ jtwc_io IO081965 17.7000 79.0000 -1 17.7000 79.0000 TC 25 17.7211 79.0412 1 6 33
1965262N15084 1965 97 NI BB NOT_NAMED 1965-09-21 09:00:00 TS 17.9516 79.1593 main 0 0 P________PP___ IO081965 17.9425 79.1501 -1 17.9425 79.1501 TC 25 17.9698 79.1778 1 6 29
1965262N15084 1965 97 NI BB NOT_NAMED 1965-09-21 12:00:00 TS 18.2112 79.3085 main 0 0 O________OP___ jtwc_io IO081965 18.2000 79.3000 -1 18.2000 79.3000 TC 25 18.2336 79.3256 1 6 31
1965262N15084 1965 97 NI BB NOT_NAMED 1965-09-21 15:00:00 TS 18.4667 79.4900 main 0 0 P________PO___ IO081965 18.4500 79.4851 -1 18.4500 79.4851 TC 25 18.5000 79.5000 1 6 37
1965262N15084 1965 97 NI BB NOT_NAMED 1965-09-21 18:00:00 TS 18.7072 79.7032 main 0 0 O________OP___ jtwc_io IO081965 18.7000 79.7000 -1 18.7000 79.7000 TC 25 18.7215 79.7096 1 6 42
1965262N15084 1965 97 NI BB NOT_NAMED 1965-09-21 21:00:00 TS 18.9441 79.9395 main 0 0 P________PP___ IO081965 18.9425 79.9351 -1 18.9425 79.9351 TC 25 18.9474 79.9484 1 7 44
1965262N15084 1965 97 NI BB NOT_NAMED 1965-09-22 00:00:00 TS 19.1999 80.2043 main 0 0 O________OP___ jtwc_io IO081965 19.2000 80.2000 -1 19.2000 80.2000 TC 25 19.1996 80.2130 1 7 44
1965262N15084 1965 97 NI BB NOT_NAMED 1965-09-22 03:00:00 TS 19.4800 80.4902 main 0 0 P________PO___ IO081965 19.4699 80.4852 -1 19.4699 80.4852 TC 25 19.5000 80.5000 1 8 42
1965262N15084 1965 97 NI BB NOT_NAMED 1965-09-22 06:00:00 TS 19.8262 80.7984 main 0 0 O________OP___ jtwc_io IO081965 19.8000 80.8000 -1 19.8000 80.8000 TC 25 19.8787 80.7953 1 10 38
1965262N15084 1965 97 NI BB NOT_NAMED 1965-09-22 09:00:00 TS 20.2533 81.1325 main 0 0 P________PP___ IO081965 20.2275 81.1425 -1 20.2275 81.1425 TC 25 20.3049 81.1125 1 11 36
1965262N15084 1965 97 NI BB NOT_NAMED 1965-09-22 12:00:00 TS 20.7179 81.4829 main 0 0 O________OP___ jtwc_io IO081965 20.7000 81.5000 -1 20.7000 81.5000 TC 25 20.7536 81.4486 1 11 36
1965262N15084 1965 97 NI BB NOT_NAMED 1965-09-22 15:00:00 TS 21.1716 81.8334 main 0 0 P________PO___ IO081965 21.1574 81.8502 -1 21.1574 81.8502 TC 25 21.2000 81.8000 1 11 37
1965262N15084 1965 97 NI BB NOT_NAMED 1965-09-22 18:00:00 TS 21.6106 82.1922 main 0 0 O________OP___ jtwc_io IO081965 21.6000 82.2000 -1 21.6000 82.2000 TC 25 21.6317 82.1766 1 11 38
1965262N15084 1965 97 NI BB NOT_NAMED 1965-09-22 21:00:00 TS 22.0275 82.5550 main 0 0 P________PP___ IO081965 22.0149 82.5502 -1 22.0149 82.5502 TC 25 22.0527 82.5645 1 11 40
1965262N15084 1965 97 NI BB NOT_NAMED 1965-09-23 00:00:00 TS 22.4158 82.9151 main 0 0 O________OP___ jtwc_io IO081965 22.4000 82.9000 -1 22.4000 82.9000 TC 25 22.4473 82.9453 1 10 41
1965262N15084 1965 97 NI BB NOT_NAMED 1965-09-23 03:00:00 TS 22.7816 83.2717 main 0 0 P________PO___ IO081965 22.7725 83.2576 -1 22.7725 83.2576 TC 25 22.8000 83.3000 1 9 43
1965262N15084 1965 97 NI BB NOT_NAMED 1965-09-23 06:00:00 TS 23.1016 83.6042 main 0 0 O________OP___ jtwc_io IO081965 23.1000 83.6000 -1 23.1000 83.6000 TC 25 23.1049 83.6127 1 8 45
1965262N15084 1965 97 NI BB NOT_NAMED 1965-09-23 09:00:00 TS 23.3707 83.9137 main 0 0 P________PP___ IO081965 23.3725 83.9226 -1 23.3725 83.9226 TC 25 23.3670 83.8960 1 7 47
1965262N15084 1965 97 NI BB NOT_NAMED 1965-09-23 12:00:00 TS 23.5986 84.1854 main 0 0 O________OP___ jtwc_io IO081965 23.6000 84.2000 -1 23.6000 84.2000 TC 25 23.5957 84.1562 1 6 46
1965262N15084 1965 97 NI BB NOT_NAMED 1965-09-23 15:00:00 TS 23.8049 84.4051 main 0 0 P________PO___ IO081965 23.8074 84.4077 -1 23.8074 84.4077 TC 25 23.8000 84.4000 1 6 45
1965262N15084 1965 97 NI BB NOT_NAMED 1965-09-23 18:00:00 TS 23.9953 84.6133 main 0 0 O________OP___ jtwc_io IO081965 24.0000 84.6000 -1 24.0000 84.6000 TC 25 23.9884 84.6333 1 6 47
1965262N15084 1965 97 NI BB NOT_NAMED 1965-09-23 21:00:00 TS 24.1838 84.8453 main 0 0 P________PP___ IO081965 24.1977 84.8347 -1 24.1977 84.8347 TC 25 24.1653 84.8594 1 6 49
1965262N15084 1965 97 NI BB NOT_NAMED 1965-09-24 00:00:00 TS 24.3673 85.0904 main 0 0 O________OP___ jtwc_io IO081965 24.4000 85.1000 -1 24.4000 85.1000 TC 25 24.3347 85.0807 1 5 53
1965262N15084 1965 97 NI BB NOT_NAMED 1965-09-24 03:00:00 NR 24.5000 85.3000 main 0 __________O___ IO081965 -1 TC 24.5000 85.3000 1 5 55

About IBTrACS Database

This database is a web-friendly format of International Best Track Archive for Climate Stewardship (IBTrACS), a global best track data archive curated by NOAA dating back to 1842.

Updated: 2021-11-26